Impacts TAF Board
For situational awareness. Not to be used for flight planning purposes.
IDs:

KCHS - Charleston Intl, SC, US

Issued at 2320 UTC 04 Jul 2022
Updated at 0012 UTC 05 Jul 2022
Potential Impact None Slight Moderate High
Time<<05/13Z 05/14Z 05/15Z 05/16Z 05/17Z 05/18Z 05/19Z 05/20Z 05/21Z 05/22Z 05/23Z 06/00Z 06/01Z>>
Type PRVL PRVL PRVL PRVL PRVL PRVL PRVL PRVL PRVL PRVL PRVL
VIS >6 >6 >6 >6 >6 >6 >6 >6 >6 >6 >6
CIG 100 -- -- -- -- -- -- -- -- -- --
Cover OVC SCT SCT SCT SCT SCT SCT SCT SCT SCT SCT
FltCat VFR VFR VFR VFR VFR VFR VFR VFR VFR VFR VFR
WX -- -- -- -- -- -- -- -- -- -- --
WDir VRB 180 180 180 180 180 160 160 160 160 160
WSpd 3 6 6 6 6 6 11 11 11 11 11
WGst -- -- -- -- -- -- -- -- -- -- --
WSHgt -- -- -- -- -- -- -- -- -- -- --
WSDir -- -- -- -- -- -- -- -- -- -- --
WSSpd -- -- -- -- -- -- -- -- -- -- --
R03/21
XWnd VRB -2 -2 -2 -2 -2 -8 -8 -8 -8 -8 0 0
R15/33
XWnd VRB -3 -3 -3 -3 -3 -2 -2 -2 -2 -2 0 0
Raw TAF
KCHS 042320Z 0500/0524 VRB03KT P6SM FEW030 OVC100
  FM051400 18006KT P6SM SCT030
  FM051900 16011KT P6SM SCT040


METAR Board
Radar Display
Forecast Discussion
For situational awareness. Not to be used for flight planning purposes.